createdAt,value
2022-08-11T00:02:26.369Z,1.80
2022-08-11T00:04:55.684Z,1.67
2022-08-11T00:07:24.613Z,2.30
2022-08-11T00:09:52.674Z,2.30
2022-08-11T00:12:19.374Z,2.17
2022-08-11T00:14:47.038Z,2.23
2022-08-11T00:17:15.717Z,2.00
2022-08-11T00:20:14.462Z,2.27
2022-08-11T00:22:35.272Z,1.77
2022-08-11T00:25:22.396Z,1.90
2022-08-11T00:27:49.224Z,1.77
2022-08-11T00:30:16.774Z,2.77
2022-08-11T00:32:46.384Z,2.30
2022-08-11T00:35:54.982Z,1.90
2022-08-11T00:38:06.836Z,2.23
2022-08-11T00:40:51.771Z,1.90
2022-08-11T00:43:33.317Z,1.93
2022-08-11T00:46:36.795Z,2.20
2022-08-11T00:49:30.302Z,2.10
2022-08-11T00:52:08.730Z,2.17
2022-08-11T00:55:07.855Z,2.13
2022-08-11T00:57:57.473Z,2.33
2022-08-11T01:00:32.102Z,1.67
2022-08-11T01:03:08.008Z,1.90
2022-08-11T01:05:38.721Z,2.40
2022-08-11T01:08:36.913Z,2.10
2022-08-11T01:11:23.356Z,1.90
2022-08-11T01:14:33.931Z,2.07
2022-08-11T01:17:52.793Z,2.10
2022-08-11T01:20:49.748Z,2.10
2022-08-11T01:23:54.119Z,1.80
2022-08-11T01:26:23.321Z,2.00
2022-08-11T01:29:13.427Z,2.17
2022-08-11T01:32:31.631Z,2.00
2022-08-11T01:35:24.758Z,2.30
2022-08-11T01:38:26.900Z,2.20
2022-08-11T01:41:09.924Z,2.17
2022-08-11T01:44:20.025Z,2.17
2022-08-11T01:46:52.206Z,2.20
2022-08-11T01:50:08.104Z,2.10
2022-08-11T01:52:35.381Z,2.10
2022-08-11T01:55:08.026Z,1.90
2022-08-11T01:57:42.318Z,2.53
2022-08-11T02:00:16.378Z,2.20
2022-08-11T02:02:53.968Z,2.03
2022-08-11T02:05:27.391Z,2.13
2022-08-11T02:08:33.141Z,2.50
2022-08-11T02:11:35.845Z,2.00
2022-08-11T02:14:14.963Z,2.60
2022-08-11T02:17:15.342Z,1.90
2022-08-11T02:20:20.452Z,2.17
2022-08-11T02:23:58.608Z,2.30
2022-08-11T02:26:09.597Z,1.93
2022-08-11T02:29:19.371Z,2.43
2022-08-11T02:32:28.806Z,2.33
2022-08-11T02:35:03.780Z,2.40
2022-08-11T02:37:33.433Z,2.43
2022-08-11T02:40:10.596Z,2.23
2022-08-11T02:42:55.739Z,2.43
2022-08-11T02:46:04.803Z,1.90
2022-08-11T02:49:18.094Z,2.10
2022-08-11T02:52:00.056Z,1.87
2022-08-11T02:54:42.407Z,2.50
2022-08-11T02:57:29.099Z,2.50
2022-08-11T03:00:14.915Z,2.30
2022-08-11T03:02:56.719Z,2.70
2022-08-11T03:05:52.993Z,2.17
2022-08-11T03:08:42.324Z,2.30
2022-08-11T03:11:36.414Z,2.07
2022-08-11T03:14:43.407Z,2.43
2022-08-11T03:17:34.253Z,2.40
2022-08-11T03:20:15.524Z,2.40
2022-08-11T03:23:20.025Z,2.53
2022-08-11T03:26:24.638Z,2.70
2022-08-11T03:29:18.302Z,2.77
2022-08-11T03:32:21.613Z,2.43
2022-08-11T03:34:50.721Z,2.63
2022-08-11T03:37:38.823Z,2.73
2022-08-11T03:40:55.477Z,2.97
2022-08-11T03:43:36.893Z,3.33
2022-08-11T03:46:27.457Z,2.33
2022-08-11T03:49:11.384Z,2.80
2022-08-11T03:51:52.448Z,2.57
2022-08-11T03:54:43.853Z,2.60
2022-08-11T03:57:52.405Z,2.80
2022-08-11T04:00:56.828Z,3.10
2022-08-11T04:03:47.215Z,2.83
2022-08-11T04:06:41.531Z,2.83
2022-08-11T04:09:27.510Z,2.83
2022-08-11T04:12:14.761Z,2.53
2022-08-11T04:16:00.645Z,2.60
2022-08-11T04:19:13.244Z,2.80
2022-08-11T04:21:51.730Z,2.50
2022-08-11T04:24:38.400Z,2.70
2022-08-11T04:27:45.000Z,3.30
2022-08-11T04:30:29.638Z,2.40
2022-08-11T04:32:59.969Z,3.10
2022-08-11T04:35:31.096Z,3.00
2022-08-11T04:38:29.505Z,3.10
2022-08-11T04:41:15.145Z,2.93
2022-08-11T04:44:13.947Z,2.90
2022-08-11T04:47:03.897Z,2.40
2022-08-11T04:50:14.298Z,3.20
2022-08-11T04:53:23.394Z,2.80
2022-08-11T04:56:26.686Z,2.80
2022-08-11T04:59:15.001Z,3.60
2022-08-11T05:02:17.757Z,2.73
2022-08-11T05:05:33.276Z,3.10
2022-08-11T05:08:37.700Z,2.63
2022-08-11T05:11:35.928Z,2.53
2022-08-11T05:14:46.327Z,2.40
2022-08-11T05:17:36.888Z,2.90
2022-08-11T05:20:22.806Z,2.20
2022-08-11T05:23:10.202Z,2.20
2022-08-11T05:26:44.141Z,2.50
2022-08-11T05:29:19.333Z,2.53
2022-08-11T05:32:17.393Z,2.40
2022-08-11T05:34:52.927Z,2.43
2022-08-11T05:37:30.318Z,2.20
2022-08-11T05:40:28.373Z,2.40
2022-08-11T05:43:31.404Z,2.13
2022-08-11T05:46:22.796Z,1.63
2022-08-11T05:49:11.699Z,2.05
2022-08-11T05:52:05.475Z,1.70
2022-08-11T05:55:06.359Z,1.83
2022-08-11T05:57:38.553Z,1.60
2022-08-11T06:00:17.192Z,2.13
2022-08-11T06:02:49.067Z,2.25
2022-08-11T06:05:16.443Z,1.90
2022-08-11T06:07:49.516Z,1.75
2022-08-11T06:10:37.725Z,1.80
2022-08-11T06:13:06.555Z,2.10
2022-08-11T06:15:43.593Z,1.70
2022-08-11T06:18:12.252Z,2.35
2022-08-11T06:20:54.031Z,2.03
2022-08-11T06:23:23.798Z,2.00
2022-08-11T06:25:52.405Z,1.92
2022-08-11T06:28:21.335Z,1.92
2022-08-11T06:30:48.938Z,1.58
2022-08-11T06:33:31.257Z,1.50
2022-08-11T06:36:09.803Z,1.95
2022-08-11T06:39:04.190Z,1.50
2022-08-11T06:41:54.238Z,2.05
2022-08-11T06:44:32.243Z,2.17
2022-08-11T06:47:08.719Z,1.42
2022-08-11T06:49:58.319Z,1.98
2022-08-11T06:52:35.920Z,1.77
2022-08-11T06:55:57.727Z,1.33
2022-08-11T06:58:16.517Z,1.40
2022-08-11T07:00:47.146Z,1.90
2022-08-11T07:03:17.757Z,2.00
2022-08-11T07:06:01.924Z,2.17
2022-08-11T07:09:38.350Z,1.40
2022-08-11T07:12:41.870Z,1.52
2022-08-11T07:16:10.781Z,1.52
2022-08-11T07:18:47.223Z,1.60
2022-08-11T07:21:43.077Z,1.52
2022-08-11T07:24:59.317Z,1.65
2022-08-11T07:28:04.706Z,1.08
2022-08-11T07:30:34.701Z,1.50
2022-08-11T07:33:03.653Z,1.60
2022-08-11T07:35:35.132Z,1.58
2022-08-11T07:38:07.147Z,1.60
2022-08-11T07:40:35.861Z,2.05
2022-08-11T07:43:03.673Z,1.40
2022-08-11T07:45:49.179Z,1.52
2022-08-11T07:48:35.833Z,1.10
2022-08-11T07:51:21.787Z,1.35
2022-08-11T07:53:57.824Z,1.42
2022-08-11T07:56:54.205Z,1.27
2022-08-11T08:00:00.407Z,1.40
2022-08-11T08:02:38.296Z,1.23
2022-08-11T08:05:25.590Z,1.88
2022-08-11T08:08:10.962Z,1.48
2022-08-11T08:10:57.377Z,1.52
2022-08-11T08:13:42.806Z,2.45
2022-08-11T08:16:30.067Z,1.88
2022-08-11T08:18:57.101Z,1.55
2022-08-11T08:21:23.921Z,1.80
2022-08-11T08:23:53.086Z,1.60
2022-08-11T08:26:42.008Z,1.30
2022-08-11T08:29:33.386Z,1.75
2022-08-11T08:32:02.675Z,1.67
2022-08-11T08:34:32.450Z,2.10
2022-08-11T08:37:00.863Z,1.90
2022-08-11T08:39:27.849Z,1.40
2022-08-11T08:41:56.990Z,1.75
2022-08-11T08:44:42.091Z,1.75
2022-08-11T08:47:41.001Z,1.65
2022-08-11T08:50:07.351Z,1.63
2022-08-11T08:52:43.962Z,1.38
2022-08-11T08:55:18.371Z,1.30
2022-08-11T08:57:48.653Z,1.80
2022-08-11T09:00:22.300Z,1.90
2022-08-11T09:02:51.818Z,1.80
2022-08-11T09:05:19.752Z,2.17
2022-08-11T09:07:51.050Z,1.35
2022-08-11T09:10:19.474Z,1.50
2022-08-11T09:12:47.321Z,1.52
2022-08-11T09:15:15.168Z,1.33
2022-08-11T09:17:50.209Z,1.65
2022-08-11T09:20:22.430Z,1.30
2022-08-11T09:24:06.463Z,1.90
2022-08-11T09:26:18.036Z,1.88
2022-08-11T09:28:46.474Z,1.58
2022-08-11T09:31:14.526Z,1.38
2022-08-11T09:33:44.682Z,1.30
2022-08-11T09:36:31.995Z,1.58
2022-08-11T09:39:19.210Z,1.70
2022-08-11T09:42:01.322Z,2.17
2022-08-11T09:44:49.838Z,1.45
2022-08-11T09:47:23.367Z,1.65
2022-08-11T09:49:53.153Z,1.33
2022-08-11T09:52:21.534Z,1.50
2022-08-11T09:54:50.588Z,1.67
2022-08-11T09:57:40.879Z,2.08
2022-08-11T10:00:13.552Z,1.70
2022-08-11T10:02:43.841Z,1.58
2022-08-11T10:05:33.000Z,2.10
2022-08-11T10:08:01.593Z,1.92
2022-08-11T10:10:29.658Z,1.85
2022-08-11T10:13:02.873Z,1.80
2022-08-11T10:15:40.278Z,2.15
2022-08-11T10:18:51.384Z,2.08
2022-08-11T10:21:28.217Z,1.85
2022-08-11T10:24:17.337Z,1.67
2022-08-11T10:26:57.058Z,2.00
2022-08-11T10:29:50.225Z,1.45
2022-08-11T10:32:57.736Z,1.77
2022-08-11T10:35:26.779Z,1.65
2022-08-11T10:38:06.118Z,1.70
2022-08-11T10:40:36.137Z,1.30
2022-08-11T10:43:03.938Z,1.50
2022-08-11T10:45:52.255Z,1.75
2022-08-11T10:48:21.219Z,1.80
2022-08-11T10:51:08.335Z,1.33
2022-08-11T10:53:59.070Z,1.20
2022-08-11T10:56:47.585Z,1.50
2022-08-11T10:59:15.543Z,1.65
2022-08-11T11:01:44.286Z,1.10
2022-08-11T11:04:16.902Z,1.40
2022-08-11T11:07:02.009Z,1.38
2022-08-11T11:09:32.201Z,1.50
2022-08-11T11:12:25.582Z,1.80
2022-08-11T11:15:17.509Z,1.40
2022-08-11T11:18:01.905Z,1.30
2022-08-11T11:20:45.070Z,1.40
2022-08-11T11:23:25.683Z,1.20
2022-08-11T11:26:27.721Z,1.70
2022-08-11T11:29:10.853Z,1.77
2022-08-11T11:32:15.259Z,1.25
2022-08-11T11:35:16.116Z,1.65
2022-08-11T11:38:03.668Z,1.35
2022-08-11T11:40:33.627Z,1.25
2022-08-11T11:43:01.761Z,2.67
2022-08-11T11:45:28.690Z,1.27
2022-08-11T11:47:58.479Z,1.42
2022-08-11T11:50:31.432Z,1.70
2022-08-11T11:53:00.469Z,1.00
2022-08-11T11:55:28.222Z,1.05
2022-08-11T11:58:18.483Z,1.25
2022-08-11T12:01:05.257Z,1.35
2022-08-11T12:03:33.921Z,1.40
2022-08-11T12:06:02.491Z,1.38
2022-08-11T12:08:29.641Z,1.50
2022-08-11T12:11:18.530Z,1.20
2022-08-11T12:13:50.376Z,1.38
2022-08-11T12:16:35.327Z,1.55
2022-08-11T12:19:05.958Z,1.50
2022-08-11T12:21:35.856Z,1.10
2022-08-11T12:24:22.412Z,1.45
2022-08-11T12:26:54.310Z,1.30
2022-08-11T12:29:36.546Z,1.45
2022-08-11T12:32:08.873Z,1.35
2022-08-11T12:34:36.945Z,1.40
2022-08-11T12:37:06.917Z,1.65
2022-08-11T12:40:16.599Z,1.83
2022-08-11T12:43:21.125Z,1.50
2022-08-11T12:45:58.217Z,1.35
2022-08-11T12:49:01.225Z,1.20
2022-08-11T12:52:13.351Z,1.40
2022-08-11T12:54:47.901Z,1.42
2022-08-11T12:57:45.212Z,1.45
2022-08-11T13:00:31.826Z,1.98
2022-08-11T13:03:17.878Z,1.90
2022-08-11T13:05:47.139Z,1.58
2022-08-11T13:08:17.146Z,1.63
2022-08-11T13:11:04.485Z,1.23
2022-08-11T13:13:54.906Z,1.63
2022-08-11T13:16:20.491Z,1.38
2022-08-11T13:18:47.533Z,1.42
2022-08-11T13:21:20.644Z,1.73
2022-08-11T13:24:00.588Z,1.92
2022-08-11T13:26:46.627Z,1.55
2022-08-11T13:29:22.284Z,1.55
2022-08-11T13:31:50.594Z,1.60
2022-08-11T13:34:20.039Z,1.50
2022-08-11T13:36:51.871Z,1.50
2022-08-11T13:39:19.320Z,1.85
2022-08-11T13:41:48.806Z,1.40
2022-08-11T13:44:23.263Z,1.30
2022-08-11T13:46:54.091Z,1.63
2022-08-11T13:49:21.880Z,1.70
2022-08-11T13:51:49.830Z,1.67
2022-08-11T13:54:19.542Z,1.98
2022-08-11T13:56:49.548Z,1.80
2022-08-11T13:59:30.053Z,1.40
2022-08-11T14:02:22.552Z,1.73
2022-08-11T14:04:57.472Z,2.03
2022-08-11T14:07:34.757Z,1.50
2022-08-11T14:10:02.698Z,2.10
2022-08-11T14:12:53.888Z,1.90
2022-08-11T14:15:25.522Z,1.55
2022-08-11T14:17:56.829Z,1.58
2022-08-11T14:20:39.673Z,1.77
2022-08-11T14:23:14.072Z,1.30
2022-08-11T14:26:02.311Z,1.58
2022-08-11T14:28:37.790Z,1.75
2022-08-11T14:31:09.311Z,1.77
2022-08-11T14:34:00.685Z,1.80
2022-08-11T14:36:26.799Z,1.42
2022-08-11T14:38:54.525Z,1.38
2022-08-11T14:42:10.037Z,1.35
2022-08-11T14:44:50.889Z,1.58
2022-08-11T14:47:23.932Z,1.73
2022-08-11T14:49:58.401Z,1.50
2022-08-11T14:52:38.296Z,1.40
2022-08-11T14:55:25.805Z,1.67
2022-08-11T14:57:55.475Z,1.30
2022-08-11T15:00:24.854Z,1.30
2022-08-11T15:03:10.741Z,1.50
2022-08-11T15:05:52.415Z,1.55
2022-08-11T15:08:47.366Z,1.30
2022-08-11T15:11:35.244Z,1.33
2022-08-11T15:14:05.104Z,1.65
2022-08-11T15:16:51.079Z,1.10
2022-08-11T15:19:20.976Z,1.00
2022-08-11T15:22:07.894Z,1.20
2022-08-11T15:24:36.276Z,1.00
2022-08-11T15:27:25.598Z,1.50
2022-08-11T15:30:18.279Z,1.38
2022-08-11T15:33:21.570Z,1.35
2022-08-11T15:36:08.617Z,1.25
2022-08-11T15:38:39.972Z,1.48
2022-08-11T15:41:26.701Z,1.60
2022-08-11T15:44:14.111Z,1.27
2022-08-11T15:46:43.883Z,1.38
2022-08-11T15:49:22.011Z,1.77
2022-08-11T15:51:55.214Z,1.33
2022-08-11T15:54:26.879Z,1.50
2022-08-11T15:56:55.350Z,1.38
2022-08-11T15:59:43.797Z,1.90
2022-08-11T16:02:34.447Z,1.30
2022-08-11T16:05:06.859Z,2.05
2022-08-11T16:07:40.718Z,1.35
2022-08-11T16:10:21.921Z,1.55
2022-08-11T16:13:06.076Z,1.27
2022-08-11T16:15:55.799Z,1.30
2022-08-11T16:18:40.610Z,1.52
2022-08-11T16:21:33.993Z,1.10
2022-08-11T16:24:01.843Z,1.20
2022-08-11T16:27:09.501Z,1.38
2022-08-11T16:29:19.751Z,1.58
2022-08-11T16:32:06.839Z,1.40
2022-08-11T16:34:53.501Z,1.20
2022-08-11T16:37:41.784Z,1.42
2022-08-11T16:40:09.831Z,1.30
2022-08-11T16:43:04.378Z,1.42
2022-08-11T16:45:58.722Z,1.55
2022-08-11T16:48:35.133Z,1.70
2022-08-11T16:51:06.391Z,1.58
2022-08-11T16:53:45.977Z,1.45
2022-08-11T16:56:27.125Z,1.50
2022-08-11T16:59:17.008Z,1.85
2022-08-11T17:01:53.179Z,1.30
2022-08-11T17:04:57.527Z,1.38
2022-08-11T17:07:44.215Z,1.65
2022-08-11T17:10:51.089Z,1.50
2022-08-11T17:13:33.625Z,1.65
2022-08-11T17:16:09.211Z,1.10
2022-08-11T17:18:58.201Z,1.27
2022-08-11T17:21:33.664Z,1.60
2022-08-11T17:24:08.772Z,1.60
2022-08-11T17:26:57.574Z,1.40
2022-08-11T17:29:34.277Z,1.20
2022-08-11T17:32:56.286Z,2.13
2022-08-11T17:35:32.977Z,1.15
2022-08-11T17:38:10.596Z,1.27
2022-08-11T17:40:40.146Z,1.55
2022-08-11T17:43:27.569Z,1.40
2022-08-11T17:46:05.121Z,1.33
2022-08-11T17:48:47.937Z,2.10
2022-08-11T17:51:38.268Z,1.70
2022-08-11T17:54:25.932Z,1.50
2022-08-11T17:57:20.325Z,2.23
2022-08-11T17:59:52.726Z,1.30
2022-08-11T18:02:42.118Z,2.07
2022-08-11T18:05:13.379Z,1.55
2022-08-11T18:08:03.909Z,1.87
2022-08-11T18:10:51.394Z,1.20
2022-08-11T18:13:40.673Z,1.60
2022-08-11T18:16:26.909Z,1.70
2022-08-11T18:19:12.067Z,1.50
2022-08-11T18:22:14.598Z,1.37
2022-08-11T18:25:07.272Z,1.20
2022-08-11T18:27:53.520Z,1.50
2022-08-11T18:30:39.247Z,1.30
2022-08-11T18:36:38.873Z,1.53
2022-08-11T18:39:27.907Z,1.57
2022-08-11T18:42:18.883Z,1.10
2022-08-11T18:45:17.874Z,1.27
2022-08-11T18:48:06.088Z,1.47
2022-08-11T18:51:00.653Z,1.40
2022-08-11T18:54:00.896Z,1.63
2022-08-11T18:56:48.667Z,1.57
2022-08-11T18:59:38.563Z,1.63
2022-08-11T19:02:25.245Z,1.43
2022-08-11T19:05:11.459Z,1.10
2022-08-11T19:07:58.585Z,1.37
2022-08-11T19:10:44.492Z,1.43
2022-08-11T19:13:31.657Z,1.30
2022-08-11T19:16:17.117Z,2.00
2022-08-11T19:19:05.617Z,1.33
2022-08-11T19:21:51.839Z,1.50
2022-08-11T19:24:38.103Z,1.27
2022-08-11T19:27:25.246Z,1.37
2022-08-11T19:30:13.997Z,1.20
2022-08-11T19:33:03.679Z,1.40
2022-08-11T19:35:50.050Z,1.20
2022-08-11T19:38:37.013Z,1.53
2022-08-11T19:41:51.771Z,1.30
2022-08-11T19:44:30.573Z,1.20
2022-08-11T19:47:17.400Z,1.20
2022-08-11T19:50:04.609Z,1.40
2022-08-11T19:52:50.758Z,1.17
2022-08-11T19:55:36.586Z,1.60
2022-08-11T19:58:25.846Z,1.30
2022-08-11T20:01:11.475Z,1.90
2022-08-11T20:03:56.798Z,1.30
2022-08-11T20:06:42.722Z,1.20
2022-08-11T20:10:05.413Z,1.23
2022-08-11T20:12:36.034Z,1.60
2022-08-11T20:15:22.995Z,1.63
2022-08-11T20:18:08.694Z,1.70
2022-08-11T20:20:54.363Z,1.43
2022-08-11T20:23:40.504Z,1.53
2022-08-11T20:26:31.276Z,1.37
2022-08-11T20:29:18.982Z,1.50
2022-08-11T20:32:06.558Z,1.33
2022-08-11T20:34:56.451Z,1.30
2022-08-11T20:37:46.641Z,1.30
2022-08-11T20:40:36.283Z,1.40
2022-08-11T20:44:06.808Z,1.30
2022-08-11T20:46:29.533Z,1.20
2022-08-11T20:49:16.222Z,1.33
2022-08-11T20:52:06.092Z,1.30
2022-08-11T20:54:53.132Z,1.10
2022-08-11T20:58:00.119Z,1.20
2022-08-11T21:00:46.125Z,1.30
2022-08-11T21:03:36.191Z,4.17
2022-08-11T21:06:31.310Z,1.27
2022-08-11T21:09:20.874Z,1.20
2022-08-11T21:12:13.351Z,1.23
2022-08-11T21:14:59.183Z,1.30
2022-08-11T21:18:00.911Z,1.40
2022-08-11T21:20:58.001Z,1.57
2022-08-11T21:23:46.115Z,1.43
2022-08-11T21:26:36.608Z,1.43
2022-08-11T21:29:24.771Z,1.50
2022-08-11T21:32:13.441Z,1.77
2022-08-11T21:35:00.690Z,1.60
2022-08-11T21:37:50.175Z,1.30
2022-08-11T21:40:37.588Z,1.47
2022-08-11T21:43:24.983Z,1.23
2022-08-11T21:46:11.945Z,1.40
2022-08-11T21:48:59.007Z,1.43
2022-08-11T21:51:44.560Z,2.23
2022-08-11T21:54:30.826Z,1.83
2022-08-11T21:57:17.461Z,2.00
2022-08-11T22:00:09.793Z,1.50
2022-08-11T22:02:59.143Z,1.40
2022-08-11T22:05:47.184Z,1.63
2022-08-11T22:08:33.672Z,1.50
2022-08-11T22:11:32.025Z,1.40
2022-08-11T22:14:21.296Z,1.30
2022-08-11T22:17:06.405Z,1.40
2022-08-11T22:19:54.671Z,1.60
2022-08-11T22:22:49.155Z,1.90
2022-08-11T22:25:39.142Z,1.27
2022-08-11T22:28:36.436Z,1.63
2022-08-11T22:31:23.815Z,1.73
2022-08-11T22:34:09.127Z,1.80
2022-08-11T22:36:55.415Z,1.23
2022-08-11T22:39:42.563Z,1.50
2022-08-11T22:42:33.586Z,1.30
2022-08-11T22:45:20.270Z,1.30
2022-08-11T22:48:06.544Z,1.40
2022-08-11T22:50:54.847Z,1.40
2022-08-11T22:53:58.626Z,2.00
2022-08-11T22:56:46.779Z,1.40
2022-08-11T22:59:34.982Z,1.90
2022-08-11T23:02:21.566Z,1.50
2022-08-11T23:05:11.023Z,1.67
2022-08-11T23:07:56.881Z,1.60
2022-08-11T23:10:43.068Z,1.50
2022-08-11T23:13:28.982Z,1.50
2022-08-11T23:16:14.787Z,1.83
2022-08-11T23:19:00.592Z,2.00
2022-08-11T23:21:46.935Z,1.70
2022-08-11T23:24:32.928Z,1.40
2022-08-11T23:27:18.738Z,1.70
2022-08-11T23:30:06.620Z,1.70
2022-08-11T23:32:53.769Z,1.97
2022-08-11T23:35:53.657Z,1.30
2022-08-11T23:38:40.949Z,1.90
2022-08-11T23:41:26.377Z,1.90
2022-08-11T23:44:12.462Z,1.43
2022-08-11T23:46:59.300Z,1.90
2022-08-11T23:49:45.973Z,2.17
2022-08-11T23:52:33.377Z,1.97
2022-08-11T23:55:18.630Z,1.67
2022-08-11T23:58:03.862Z,1.70
